CheckWX is a tool to help pilots better visualize weather data.  It is not intended as a substitute for an official pre-flight weather briefing.

15:12:28 UTC

KHSP METAR
Ingalls Field Airport
Hot Springs, Virginia, USA
Current

22 mins ago

KHSP 261450Z AUTO 28011G16KT 10SM SCT019 22/19 A3024 RMK AO2 T02210194
Observed
May-26 @ 14:50 UTC
Wind
  • 280° at 11 KTS
  • Gusting to 16 KTS
Visibility
10 SM
Flight Rules
VFR
Cloud Levels
  • Scattered at 1,900' AGL
Temperature
22°C / 72°F
Dewpoint
19°C / 66°F
Humidity
83%
Altimeter
30.24" Hg
Pressure
1024.02 hPa
Previous

42 mins ago

KHSP 261430Z AUTO 28013G17KT 10SM CLR 22/19 A3024 RMK AO2 T02200192
Observed
May-26 @ 14:30 UTC
Wind
  • 280° at 13 KTS
  • Gusting to 17 KTS
Visibility
10 SM
Flight Rules
VFR
Cloud Levels
  • Clear skies
Temperature
22°C / 72°F
Dewpoint
19°C / 66°F
Humidity
83%
Altimeter
30.24" Hg
Pressure
1024.02 hPa
Previous

1 hour ago

KHSP 261410Z AUTO 29013G18KT 10SM CLR 22/19 A3024 RMK AO2 T02170191
Observed
May-26 @ 14:10 UTC
Wind
  • 290° at 13 KTS
  • Gusting to 18 KTS
Visibility
10 SM
Flight Rules
VFR
Cloud Levels
  • Clear skies
Temperature
22°C / 72°F
Dewpoint
19°C / 66°F
Humidity
83%
Altimeter
30.24" Hg
Pressure
1024.02 hPa